Time;durP1;ratioP1;P1;durP2;ratioP2;P2;SDS_P1;SDS_P2;PMS_P1;PMS_P2;Temp;Humidity;BMP_temperature;BMP_pressure;BME280_temperature;BME280_humidity;BME280_pressure;Samples;Min_cycle;Max_cycle;Signal;HPM_P1;HPM_P2
2022/06/26 00:00:31;;;;;;;9.30;5.80;;;23.60;41.30;;;;;;5035759;28;20218;-73
2022/06/26 00:02:57;;;;;;;9.63;4.80;;;23.50;38.80;;;;;;5032813;28;20184;-72
2022/06/26 00:05:22;;;;;;;7.53;5.30;;;23.60;40.60;;;;;;5032740;28;20481;-73
2022/06/26 00:07:48;;;;;;;7.00;4.60;;;23.60;39.50;;;;;;5031420;28;20180;-75
2022/06/26 00:10:14;;;;;;;10.00;5.33;;;23.50;39.60;;;;;;5029677;28;20662;-73
2022/06/26 00:12:40;;;;;;;9.90;4.93;;;23.60;39.80;;;;;;5028339;28;20195;-73
2022/06/26 00:15:06;;;;;;;5.43;3.10;;;23.40;39.90;;;;;;5028533;28;20469;-73
2022/06/26 00:17:31;;;;;;;7.50;4.60;;;23.40;35.20;;;;;;5031418;28;20277;-74
2022/06/26 00:19:57;;;;;;;9.47;4.63;;;23.10;37.20;;;;;;5032229;28;20470;-73
2022/06/26 00:22:23;;;;;;;7.50;5.33;;;22.30;40.60;;;;;;5033454;28;20257;-73
2022/06/26 00:24:48;;;;;;;8.23;5.00;;;21.30;47.00;;;;;;5029720;28;20281;-74
2022/06/26 00:27:14;;;;;;;25.23;5.23;;;21.30;45.90;;;;;;5030508;28;20186;-73
2022/06/26 00:29:39;;;;;;;10.17;4.03;;;22.20;44.70;;;;;;5026258;28;20266;-73
2022/06/26 00:32:06;;;;;;;8.33;3.83;;;22.90;39.60;;;;;;5022038;28;20246;-74
2022/06/26 00:34:32;;;;;;;4.53;3.70;;;22.90;38.60;;;;;;5029856;28;20190;-73
2022/06/26 00:36:58;;;;;;;7.23;3.70;;;22.60;39.60;;;;;;5029970;28;20431;-74
2022/06/26 00:39:24;;;;;;;8.07;3.87;;;22.60;39.00;;;;;;5025429;28;20857;-73
2022/06/26 00:41:52;;;;;;;7.07;3.70;;;22.50;39.50;;;;;;5029911;28;20191;-73
2022/06/26 00:44:23;;;;;;;4.77;3.40;;;23.10;37.40;;;;;;5029893;28;20468;-72
2022/06/26 00:46:49;;;;;;;9.67;3.47;;;23.40;36.20;;;;;;5030079;28;20466;-74
2022/06/26 00:49:15;;;;;;;3.90;3.40;;;23.40;36.20;;;;;;5030829;28;20921;-75
2022/06/26 00:51:45;;;;;;;4.03;3.40;;;23.70;35.40;;;;;;5030479;28;20516;-73
2022/06/26 00:54:12;;;;;;;8.60;3.80;;;24.00;34.60;;;;;;5027575;28;20517;-74
2022/06/26 00:56:38;;;;;;;4.50;3.43;;;24.10;33.80;;;;;;5031432;28;20518;-73
2022/06/26 00:59:04;;;;;;;13.90;3.70;;;23.80;34.60;;;;;;5031679;28;20512;-73
2022/06/26 01:01:31;;;;;;;4.27;3.40;;;23.90;34.80;;;;;;5032047;28;20523;-72
2022/06/26 01:03:57;;;;;;;4.43;3.63;;;24.10;33.90;;;;;;5031466;28;20695;-74
2022/06/26 01:06:23;;;;;;;6.60;3.57;;;24.10;34.10;;;;;;5032446;28;20444;-74
2022/06/26 01:08:49;;;;;;;4.67;3.43;;;23.90;35.10;;;;;;5029445;28;20434;-74
2022/06/26 01:11:17;;;;;;;5.70;3.77;;;24.10;34.40;;;;;;5031088;28;20645;-73
2022/06/26 01:13:48;;;;;;;4.80;3.67;;;24.00;34.60;;;;;;5032122;28;20459;-74
2022/06/26 01:16:14;;;;;;;5.23;3.53;;;24.10;34.40;;;;;;5032246;28;20870;-74
2022/06/26 01:18:42;;;;;;;6.50;3.67;;;24.20;35.80;;;;;;5026977;28;20427;-71
2022/06/26 01:21:07;;;;;;;4.77;3.83;;;24.30;34.50;;;;;;5027446;28;20929;-74
2022/06/26 01:23:33;;;;;;;4.50;3.43;;;24.40;36.40;;;;;;5031817;28;20441;-74
2022/06/26 01:25:58;;;;;;;4.80;3.30;;;24.40;36.10;;;;;;5024456;28;20211;-74
2022/06/26 01:28:24;;;;;;;4.20;3.50;;;24.40;35.20;;;;;;5025018;28;20180;-73
2022/06/26 01:30:50;;;;;;;4.17;3.70;;;24.30;36.90;;;;;;5030169;28;20316;-74
2022/06/26 01:33:16;;;;;;;6.33;3.50;;;24.30;37.40;;;;;;5028670;28;20685;-74
2022/06/26 01:35:41;;;;;;;5.77;4.20;;;24.20;37.80;;;;;;5029979;28;20207;-74
2022/06/26 01:38:11;;;;;;;5.57;3.77;;;24.20;37.20;;;;;;5029872;28;20195;-74
2022/06/26 01:40:37;;;;;;;6.07;4.03;;;24.20;38.40;;;;;;5021702;28;20361;-74
2022/06/26 01:43:02;;;;;;;4.60;3.67;;;24.20;37.60;;;;;;5030197;28;20426;-74
2022/06/26 01:45:28;;;;;;;11.13;4.00;;;24.10;38.00;;;;;;5029296;28;20524;-74
2022/06/26 01:47:56;;;;;;;6.80;3.60;;;24.00;38.30;;;;;;5032131;28;20221;-74
2022/06/26 01:50:22;;;;;;;16.63;4.37;;;24.00;39.10;;;;;;5021025;28;20181;-74
2022/06/26 01:52:48;;;;;;;4.70;3.90;;;24.00;36.60;;;;;;5031376;28;21105;-74
2022/06/26 01:55:13;;;;;;;4.60;3.70;;;23.10;38.80;;;;;;5031168;28;20298;-73
2022/06/26 01:57:39;;;;;;;5.00;3.67;;;22.50;41.00;;;;;;5029832;28;20185;-73
2022/06/26 02:00:06;;;;;;;5.17;4.20;;;22.20;42.60;;;;;;5025547;28;20203;-75
2022/06/26 02:02:33;;;;;;;11.57;4.13;;;22.20;43.00;;;;;;5030108;28;20207;-74
2022/06/26 02:04:59;;;;;;;6.03;3.67;;;22.40;42.00;;;;;;5027853;28;20476;-74
2022/06/26 02:07:25;;;;;;;7.03;3.80;;;22.60;41.40;;;;;;5031651;28;20423;-75
2022/06/26 02:15:19;;;;;;;7.40;3.80;;;22.30;42.80;;;;;;5026861;28;20469;-74
2022/06/26 02:17:45;;;;;;;5.33;4.40;;;22.80;43.60;;;;;;5023133;28;20430;-74
2022/06/26 02:20:11;;;;;;;7.23;4.23;;;23.00;42.30;;;;;;5027529;28;20234;-74
2022/06/26 02:22:37;;;;;;;5.40;4.30;;;23.30;41.00;;;;;;5026831;28;20187;-74
2022/06/26 02:25:04;;;;;;;8.03;4.23;;;23.20;41.10;;;;;;5030435;28;20499;-74
2022/06/26 02:27:29;;;;;;;7.20;3.97;;;23.50;41.50;;;;;;5030000;28;20195;-74
2022/06/26 02:29:55;;;;;;;8.13;4.30;;;23.70;41.50;;;;;;5027743;28;20933;-74
2022/06/26 02:32:21;;;;;;;18.23;4.27;;;23.90;41.00;;;;;;5028296;28;20200;-75
2022/06/26 02:34:46;;;;;;;6.43;3.83;;;24.10;38.40;;;;;;5026991;28;20646;-75
2022/06/26 02:37:12;;;;;;;5.27;4.30;;;23.90;39.30;;;;;;5028131;28;20622;-73
2022/06/26 02:39:37;;;;;;;8.83;3.73;;;23.60;39.00;;;;;;5026212;28;20278;-74
2022/06/26 02:42:03;;;;;;;4.40;3.90;;;23.00;40.30;;;;;;5029375;28;20191;-74
2022/06/26 02:44:30;;;;;;;16.07;4.07;;;23.40;40.70;;;;;;5027172;28;20301;-73
2022/06/26 02:46:56;;;;;;;4.30;3.90;;;23.30;41.60;;;;;;5026011;28;20476;-74
2022/06/26 02:49:21;;;;;;;7.17;4.20;;;23.30;41.70;;;;;;5022556;28;20425;-73
2022/06/26 02:51:47;;;;;;;5.40;4.20;;;23.50;43.10;;;;;;5029595;28;20191;-74
2022/06/26 02:54:13;;;;;;;5.87;4.10;;;23.70;40.90;;;;;;5026631;28;20183;-73
2022/06/26 02:56:38;;;;;;;5.50;3.90;;;23.80;42.60;;;;;;5027840;28;20251;-74
2022/06/26 02:59:04;;;;;;;5.47;4.10;;;23.80;41.60;;;;;;5028245;28;20847;-74
2022/06/26 03:01:29;;;;;;;5.30;4.10;;;23.90;42.30;;;;;;5027769;28;20184;-74
2022/06/26 03:03:55;;;;;;;8.13;4.60;;;23.70;40.50;;;;;;5028783;28;20577;-74
2022/06/26 03:06:21;;;;;;;6.03;3.70;;;23.50;40.00;;;;;;5027589;28;20279;-73
2022/06/26 03:08:46;;;;;;;7.80;4.27;;;23.20;41.00;;;;;;5029703;28;20553;-75
2022/06/26 03:11:12;;;;;;;5.90;3.97;;;23.20;42.80;;;;;;5029851;28;20327;-74
2022/06/26 03:13:38;;;;;;;11.20;4.33;;;23.30;42.50;;;;;;5028243;28;20183;-73
2022/06/26 03:16:04;;;;;;;8.70;4.13;;;23.50;43.40;;;;;;5028346;28;20290;-74
2022/06/26 03:18:29;;;;;;;9.17;4.13;;;23.70;42.40;;;;;;5029008;28;20179;-74
2022/06/26 03:20:56;;;;;;;6.90;4.67;;;23.70;42.40;;;;;;5028992;28;20188;-74
2022/06/26 03:24:01;;;;;;;7.83;4.90;;;23.60;42.60;;;;;;5021813;28;20277;-75
2022/06/26 03:26:07;;;;;;;13.83;4.30;;;23.70;42.10;;;;;;5027341;28;20457;-73
2022/06/26 03:28:33;;;;;;;4.70;4.13;;;23.90;40.70;;;;;;5024211;28;20448;-74
2022/06/26 03:30:58;;;;;;;6.17;4.30;;;23.90;40.80;;;;;;5028987;28;20184;-73
2022/06/26 03:33:24;;;;;;;4.70;4.03;;;23.80;41.20;;;;;;5029303;28;20307;-74
2022/06/26 03:35:50;;;;;;;5.60;4.40;;;23.80;41.70;;;;;;5028989;28;20209;-74
2022/06/26 03:38:15;;;;;;;7.27;4.40;;;23.60;41.00;;;;;;5028849;28;20201;-74
2022/06/26 03:40:41;;;;;;;5.07;4.67;;;23.50;42.90;;;;;;5029678;28;20184;-74
2022/06/26 03:43:11;;;;;;;8.53;4.80;;;23.50;44.20;;;;;;5029414;28;20177;-75
2022/06/26 03:45:38;;;;;;;11.23;4.47;;;23.60;42.40;;;;;;5028782;28;20212;-75
2022/06/26 03:48:04;;;;;;;5.90;4.47;;;23.70;41.50;;;;;;5028660;28;20985;-74
2022/06/26 03:50:30;;;;;;;9.90;4.50;;;23.50;43.80;;;;;;5032589;28;20435;-73
2022/06/26 03:52:56;;;;;;;6.07;4.40;;;23.70;42.20;;;;;;5026233;28;20457;-73
2022/06/26 03:55:22;;;;;;;11.80;4.30;;;24.00;40.50;;;;;;5027342;28;20622;-74
2022/06/26 03:57:48;;;;;;;6.67;4.60;;;23.80;43.00;;;;;;5022887;28;20449;-74
2022/06/26 04:00:14;;;;;;;7.70;4.37;;;23.70;42.00;;;;;;5025611;28;20441;-73
2022/06/26 04:02:40;;;;;;;4.87;4.33;;;24.00;39.20;;;;;;5028793;28;20221;-74
2022/06/26 04:05:07;;;;;;;12.60;4.53;;;23.80;43.50;;;;;;5027002;28;20475;-74
2022/06/26 04:07:32;;;;;;;6.10;4.60;;;23.70;42.40;;;;;;5030984;28;20441;-74
2022/06/26 04:09:58;;;;;;;6.40;4.37;;;23.60;45.00;;;;;;5032662;28;20492;-74
2022/06/26 04:12:24;;;;;;;5.67;4.70;;;23.60;44.80;;;;;;5024526;28;20261;-74
2022/06/26 04:14:49;;;;;;;6.30;4.30;;;23.60;43.00;;;;;;5012871;28;20585;-74
2022/06/26 04:17:15;;;;;;;6.20;4.77;;;23.90;41.30;;;;;;5013584;28;20194;-74
2022/06/26 04:19:41;;;;;;;7.60;4.23;;;23.80;43.40;;;;;;5026988;28;20196;-73
2022/06/26 04:22:06;;;;;;;6.40;4.07;;;23.70;44.00;;;;;;5032912;28;20248;-72
2022/06/26 04:24:32;;;;;;;7.63;4.30;;;23.60;44.30;;;;;;5024834;28;20272;-74
2022/06/26 04:26:57;;;;;;;10.23;4.47;;;23.50;44.20;;;;;;5029686;28;20651;-74
2022/06/26 04:29:23;;;;;;;9.43;4.40;;;23.60;44.00;;;;;;5027951;28;20179;-74
2022/06/26 04:31:49;;;;;;;7.93;4.07;;;23.60;43.00;;;;;;5011156;28;20214;-73
2022/06/26 04:34:15;;;;;;;7.30;4.20;;;23.70;43.80;;;;;;5028056;28;20624;-73
2022/06/26 04:36:41;;;;;;;9.47;5.50;;;23.60;43.40;;;;;;5027270;28;20617;-74
2022/06/26 04:39:06;;;;;;;21.00;9.70;;;23.60;43.80;;;;;;5030983;28;20185;-71
2022/06/26 04:41:34;;;;;;;20.30;7.50;;;23.30;43.00;;;;;;5026120;28;20576;-74
2022/06/26 04:44:01;;;;;;;19.83;9.10;;;23.60;45.00;;;;;;5031821;28;20808;-74
2022/06/26 04:46:27;;;;;;;21.97;9.67;;;23.60;45.30;;;;;;5025089;28;20481;-74
2022/06/26 04:48:52;;;;;;;14.43;8.17;;;23.70;45.90;;;;;;5030502;28;20507;-74
2022/06/26 04:51:18;;;;;;;16.93;8.83;;;23.60;45.00;;;;;;5031955;28;20176;-73
2022/06/26 04:53:44;;;;;;;30.40;9.43;;;23.60;46.30;;;;;;5026764;28;20234;-73
2022/06/26 04:56:09;;;;;;;19.67;9.40;;;23.50;46.00;;;;;;5027295;28;20195;-73
2022/06/26 04:58:35;;;;;;;19.70;9.50;;;23.60;47.10;;;;;;5031462;28;20235;-74
2022/06/26 05:01:02;;;;;;;16.73;9.00;;;23.70;45.40;;;;;;5030287;28;20302;-74
2022/06/26 05:03:28;;;;;;;22.80;7.47;;;23.90;44.90;;;;;;5026478;28;20179;-74
2022/06/26 05:05:54;;;;;;;19.17;7.50;;;24.00;42.20;;;;;;5027972;28;20457;-73
2022/06/26 05:08:19;;;;;;;12.87;7.00;;;23.90;43.70;;;;;;5032617;28;20169;-72
2022/06/26 05:10:45;;;;;;;21.00;6.60;;;24.20;43.80;;;;;;5024675;28;20202;-74
2022/06/26 05:13:11;;;;;;;8.13;5.13;;;24.00;45.20;;;;;;5029383;28;20209;-74
2022/06/26 05:15:36;;;;;;;8.70;5.37;;;24.00;43.90;;;;;;5027001;28;20221;-74
2022/06/26 05:18:02;;;;;;;8.63;4.67;;;24.00;45.40;;;;;;5027661;28;20548;-73
2022/06/26 05:20:28;;;;;;;28.80;6.90;;;24.10;45.50;;;;;;5027452;28;20243;-74
2022/06/26 05:22:53;;;;;;;17.30;8.17;;;24.10;44.00;;;;;;5025348;28;20708;-75
2022/06/26 05:25:19;;;;;;;19.10;7.57;;;24.20;41.70;;;;;;5026475;28;20211;-75
2022/06/26 05:27:44;;;;;;;17.30;7.87;;;24.10;41.50;;;;;;5028993;28;20624;-73
2022/06/26 05:30:11;;;;;;;9.00;6.50;;;24.10;42.90;;;;;;5029980;28;20742;-75
2022/06/26 05:32:36;;;;;;;10.20;6.50;;;24.20;40.90;;;;;;5027946;28;20180;-73
2022/06/26 05:35:02;;;;;;;11.80;6.17;;;24.10;41.50;;;;;;5025211;28;20821;-74
2022/06/26 05:37:28;;;;;;;9.10;6.17;;;24.30;41.00;;;;;;5024875;28;20188;-75
2022/06/26 05:39:54;;;;;;;11.90;5.50;;;24.30;40.30;;;;;;5027694;28;20445;-72
2022/06/26 05:42:19;;;;;;;8.93;5.40;;;24.30;40.30;;;;;;5030323;28;20189;-75
2022/06/26 05:44:45;;;;;;;8.53;5.60;;;24.30;40.40;;;;;;5027771;28;20249;-74
2022/06/26 05:47:10;;;;;;;8.67;5.07;;;24.20;41.70;;;;;;5023508;28;20191;-74
2022/06/26 05:49:36;;;;;;;8.40;4.73;;;23.80;41.60;;;;;;5027486;28;20209;-75
2022/06/26 05:52:02;;;;;;;6.03;4.73;;;23.90;41.20;;;;;;5025557;28;20641;-75
2022/06/26 05:54:27;;;;;;;6.00;4.80;;;23.90;43.00;;;;;;5028686;28;20234;-74
2022/06/26 05:56:53;;;;;;;6.27;4.90;;;24.00;41.90;;;;;;5027320;28;20179;-74
2022/06/26 05:59:19;;;;;;;7.70;4.77;;;24.00;42.30;;;;;;5031184;28;20182;-74
2022/06/26 06:01:45;;;;;;;10.10;4.73;;;23.70;42.60;;;;;;5025944;28;20259;-75
2022/06/26 06:04:11;;;;;;;5.73;4.63;;;23.80;42.40;;;;;;5028292;28;20579;-74
2022/06/26 06:06:36;;;;;;;9.50;4.70;;;24.10;43.90;;;;;;5020266;28;20269;-74
2022/06/26 06:09:02;;;;;;;14.83;4.20;;;24.10;41.60;;;;;;5028264;28;20181;-72
2022/06/26 06:11:28;;;;;;;8.40;4.77;;;24.00;41.70;;;;;;5027915;28;20733;-74
2022/06/26 06:13:53;;;;;;;18.70;4.43;;;24.10;40.60;;;;;;5026898;28;20186;-73
2022/06/26 06:16:19;;;;;;;10.67;4.10;;;24.30;40.50;;;;;;5029896;28;20274;-74
2022/06/26 06:18:45;;;;;;;4.27;3.50;;;24.40;39.40;;;;;;5024535;28;20188;-74
2022/06/26 06:21:11;;;;;;;8.17;3.90;;;24.30;40.10;;;;;;5026573;28;20615;-75
2022/06/26 06:23:36;;;;;;;4.70;4.03;;;24.30;39.40;;;;;;5028271;28;20184;-74
2022/06/26 06:26:02;;;;;;;3.90;3.40;;;24.30;40.40;;;;;;5028683;28;20446;-73
2022/06/26 06:28:27;;;;;;;5.30;3.70;;;24.20;39.40;;;;;;5012214;28;20721;-73
2022/06/26 06:30:53;;;;;;;5.23;4.00;;;24.40;40.60;;;;;;5027737;28;20644;-74
2022/06/26 06:33:19;;;;;;;3.73;3.43;;;24.60;38.30;;;;;;5030489;28;20183;-74
2022/06/26 06:35:44;;;;;;;4.80;3.37;;;24.50;37.40;;;;;;5028808;28;20718;-74
2022/06/26 06:38:10;;;;;;;5.10;3.57;;;24.50;37.40;;;;;;5031797;28;20628;-74
2022/06/26 06:40:36;;;;;;;9.27;3.70;;;24.80;36.30;;;;;;5027140;28;20183;-72
2022/06/26 06:43:02;;;;;;;6.23;3.70;;;24.90;35.90;;;;;;5029591;28;20184;-74
2022/06/26 06:45:27;;;;;;;3.77;3.30;;;25.10;35.60;;;;;;5026242;28;20215;-74
2022/06/26 06:47:53;;;;;;;4.60;3.30;;;24.90;35.90;;;;;;5028743;28;20204;-74
2022/06/26 06:50:19;;;;;;;6.23;3.50;;;24.70;37.60;;;;;;5027655;28;20180;-75
2022/06/26 06:52:44;;;;;;;4.70;3.80;;;24.70;38.20;;;;;;5027231;28;20241;-75
2022/06/26 06:55:10;;;;;;;4.70;3.23;;;24.70;36.30;;;;;;5028461;28;20326;-73
2022/06/26 06:57:36;;;;;;;4.50;3.43;;;24.90;37.00;;;;;;5028458;28;20185;-73
2022/06/26 07:00:02;;;;;;;5.63;3.23;;;25.10;35.50;;;;;;5028454;28;20176;-70
2022/06/26 07:02:31;;;;;;;4.33;3.23;;;25.10;35.00;;;;;;5028765;28;20306;-70
2022/06/26 07:04:56;;;;;;;3.70;3.10;;;25.10;35.40;;;;;;5028072;28;20468;-70
2022/06/26 07:07:22;;;;;;;6.43;3.30;;;25.20;37.00;;;;;;5028635;28;20449;-69
2022/06/26 07:09:47;;;;;;;4.43;3.53;;;25.30;36.00;;;;;;5028906;28;20546;-70
2022/06/26 07:12:13;;;;;;;4.10;3.23;;;25.30;36.20;;;;;;5028446;28;20180;-69
2022/06/26 07:14:39;;;;;;;3.13;2.70;;;25.30;36.80;;;;;;5024192;28;20613;-70
2022/06/26 07:17:04;;;;;;;4.00;3.03;;;25.40;32.90;;;;;;5031470;28;20188;-69
2022/06/26 07:19:30;;;;;;;3.57;3.10;;;25.50;34.40;;;;;;5015653;28;20173;-70
2022/06/26 07:21:56;;;;;;;10.20;3.40;;;25.30;32.50;;;;;;5030541;28;20275;-69
2022/06/26 07:24:21;;;;;;;5.70;4.20;;;24.40;35.60;;;;;;5032021;28;20612;-70
2022/06/26 07:26:47;;;;;;;5.43;3.40;;;24.70;36.00;;;;;;5031888;28;20260;-70
2022/06/26 07:29:13;;;;;;;5.00;3.50;;;24.60;37.50;;;;;;5024375;28;20208;-69
2022/06/26 07:31:38;;;;;;;4.40;3.40;;;24.70;38.60;;;;;;5027555;28;20675;-70
2022/06/26 07:34:13;;;;;;;6.33;3.70;;;24.90;37.00;;;;;;5030958;28;20625;-69
2022/06/26 07:36:40;;;;;;;4.00;3.17;;;24.50;37.70;;;;;;5029641;28;20229;-70
2022/06/26 07:39:06;;;;;;;4.40;3.47;;;25.00;37.40;;;;;;5034568;28;20434;-70
2022/06/26 07:41:31;;;;;;;5.60;3.13;;;25.30;36.60;;;;;;5011513;28;20967;-70
2022/06/26 07:43:57;;;;;;;4.97;3.13;;;25.60;36.10;;;;;;5032261;28;20204;-69
2022/06/26 07:46:23;;;;;;;8.33;3.30;;;25.60;34.50;;;;;;5032699;28;20200;-70
2022/06/26 07:48:49;;;;;;;4.10;3.40;;;25.90;35.00;;;;;;5034070;28;20800;-70
2022/06/26 07:51:14;;;;;;;3.87;2.90;;;25.70;35.10;;;;;;5025662;28;20207;-70
2022/06/26 07:53:40;;;;;;;4.17;3.27;;;26.00;34.70;;;;;;5032946;28;20238;-68
2022/06/26 07:56:06;;;;;;;3.40;2.93;;;25.60;32.20;;;;;;5026141;28;20213;-70
2022/06/26 07:58:32;;;;;;;4.23;3.00;;;25.80;33.60;;;;;;5018674;28;20838;-70
2022/06/26 08:00:57;;;;;;;4.30;3.03;;;26.10;32.50;;;;;;5030808;28;20521;-70
2022/06/26 08:03:23;;;;;;;5.43;3.10;;;26.20;32.70;;;;;;5032910;28;20176;-70
2022/06/26 08:05:49;;;;;;;4.73;3.50;;;26.30;31.90;;;;;;5033368;28;20219;-69
2022/06/26 08:08:15;;;;;;;3.97;3.03;;;26.40;31.90;;;;;;5028870;28;20184;-69
2022/06/26 08:10:41;;;;;;;4.20;3.23;;;26.10;30.80;;;;;;5024557;28;20196;-73
2022/06/26 08:13:07;;;;;;;8.53;3.27;;;25.20;33.90;;;;;;5028698;28;20435;-76
2022/06/26 08:15:35;;;;;;;5.77;3.00;;;25.90;34.10;;;;;;5029355;28;20642;-77
2022/06/26 08:18:01;;;;;;;3.80;3.30;;;26.00;31.90;;;;;;5033500;28;20472;-75
2022/06/26 08:20:26;;;;;;;4.93;3.03;;;25.50;32.10;;;;;;5033015;28;20643;-75
2022/06/26 08:22:52;;;;;;;3.90;2.90;;;25.50;34.10;;;;;;5027939;28;20541;-74
2022/06/26 08:25:18;;;;;;;4.33;3.10;;;26.00;33.40;;;;;;5028532;28;20208;-72
2022/06/26 08:27:44;;;;;;;4.70;3.40;;;26.30;33.10;;;;;;5027388;28;20245;-75
2022/06/26 08:30:09;;;;;;;4.40;3.27;;;26.40;33.90;;;;;;5030536;28;20180;-72
2022/06/26 08:32:36;;;;;;;6.63;3.50;;;26.60;32.60;;;;;;5026133;28;20229;-73
2022/06/26 08:35:04;;;;;;;5.63;3.10;;;26.20;33.10;;;;;;5027379;28;20450;-71
2022/06/26 08:37:29;;;;;;;4.03;3.40;;;26.50;32.60;;;;;;5029269;28;20516;-73
2022/06/26 08:39:55;;;;;;;4.27;3.23;;;26.60;31.60;;;;;;5029772;28;20476;-70
2022/06/26 08:42:21;;;;;;;5.30;3.60;;;26.50;32.10;;;;;;5028101;28;20187;-73
2022/06/26 08:44:47;;;;;;;5.23;3.40;;;26.90;33.70;;;;;;5031177;28;20220;-71
2022/06/26 08:47:18;;;;;;;4.57;3.30;;;26.00;31.30;;;;;;5028800;28;20430;-72
2022/06/26 08:49:44;;;;;;;4.60;3.47;;;26.30;32.80;;;;;;5031608;28;20734;-72
2022/06/26 08:52:13;;;;;;;3.73;3.30;;;26.20;31.10;;;;;;5024169;28;20420;-71
2022/06/26 08:54:39;;;;;;;4.13;3.40;;;25.70;33.10;;;;;;5028264;28;20551;-70
2022/06/26 08:57:05;;;;;;;3.77;3.10;;;25.60;32.90;;;;;;5028826;28;20513;-70
2022/06/26 08:59:31;;;;;;;5.47;3.50;;;25.40;34.40;;;;;;5030165;28;20439;-70
2022/06/26 09:01:57;;;;;;;4.70;3.60;;;25.60;34.70;;;;;;5032141;28;20239;-70
2022/06/26 09:04:22;;;;;;;5.07;3.10;;;25.80;32.30;;;;;;5025968;28;20250;-70
2022/06/26 09:06:48;;;;;;;4.30;3.17;;;25.90;32.60;;;;;;5028893;28;20176;-70
2022/06/26 09:09:22;;;;;;;5.90;3.30;;;25.80;32.30;;;;;;5023712;28;20267;-71
2022/06/26 09:11:49;;;;;;;3.60;3.27;;;26.10;32.10;;;;;;5024479;28;20426;-70
2022/06/26 09:14:15;;;;;;;3.47;3.00;;;25.90;31.30;;;;;;5027022;28;21056;-72
2022/06/26 09:16:46;;;;;;;4.43;3.30;;;26.40;30.30;;;;;;5025445;28;20990;-71
2022/06/26 09:19:13;;;;;;;5.83;3.10;;;26.00;32.60;;;;;;5026890;28;20443;-71
2022/06/26 09:21:40;;;;;;;4.20;3.40;;;26.60;31.90;;;;;;5027766;28;20423;-71
2022/06/26 09:24:11;;;;;;;4.20;3.17;;;26.60;29.50;;;;;;5026240;28;20463;-70
2022/06/26 09:26:38;;;;;;;3.17;2.83;;;26.90;30.40;;;;;;5028031;28;20443;-71
2022/06/26 09:29:11;;;;;;;4.00;2.90;;;26.00;30.00;;;;;;5026202;28;20430;-70
2022/06/26 09:31:38;;;;;;;3.57;2.90;;;25.90;30.90;;;;;;5026924;28;20473;-70
2022/06/26 09:34:20;;;;;;;6.33;3.33;;;26.40;31.90;;;;;;5027316;28;20474;-70
2022/06/26 09:37:01;;;;;;;7.67;3.40;;;27.30;30.20;;;;;;5027214;28;20462;-71
2022/06/26 09:39:29;;;;;;;4.97;3.50;;;27.90;29.30;;;;;;5027287;28;20413;-70
2022/06/26 09:41:54;;;;;;;4.20;2.87;;;27.00;29.60;;;;;;5027187;28;20445;-71
2022/06/26 09:44:21;;;;;;;3.83;3.00;;;27.60;29.80;;;;;;5028129;28;20958;-70
2022/06/26 09:46:47;;;;;;;4.00;2.50;;;27.50;27.40;;;;;;5026059;28;20215;-70
2022/06/26 09:49:13;;;;;;;3.27;2.90;;;27.70;29.20;;;;;;5026278;28;20419;-70
2022/06/26 09:51:40;;;;;;;5.73;2.83;;;28.00;27.70;;;;;;5015802;28;20415;-70
2022/06/26 09:54:06;;;;;;;4.57;2.97;;;27.60;27.80;;;;;;5027360;28;20421;-70
2022/06/26 09:56:32;;;;;;;2.97;2.83;;;27.60;29.00;;;;;;5021808;28;20529;-70
2022/06/26 09:58:59;;;;;;;3.50;2.70;;;27.90;27.70;;;;;;5027031;28;20177;-70
2022/06/26 10:07:01;;;;;;;6.33;2.60;;;27.30;28.60;;;;;;5027969;28;20510;-70
2022/06/26 10:09:28;;;;;;;3.43;2.60;;;27.40;28.40;;;;;;5023947;28;20430;-70
2022/06/26 10:11:57;;;;;;;3.27;2.70;;;27.30;28.60;;;;;;5025225;28;20439;-70
2022/06/26 10:14:28;;;;;;;3.00;2.67;;;28.30;27.20;;;;;;5022642;28;20423;-70
2022/06/26 10:17:24;;;;;;;3.27;2.40;;;28.00;27.70;;;;;;5022723;28;20446;-70
2022/06/26 10:20:00;;;;;;;11.43;2.60;;;27.10;27.20;;;;;;5028832;28;20463;-70
2022/06/26 10:22:26;;;;;;;2.77;2.50;;;27.30;27.60;;;;;;5021752;28;20426;-70
2022/06/26 10:25:02;;;;;;;5.60;3.03;;;26.90;28.50;;;;;;5023549;28;20463;-70
2022/06/26 10:27:33;;;;;;;3.37;2.70;;;27.70;27.70;;;;;;5023768;28;20176;-70
2022/06/26 10:30:16;;;;;;;3.13;2.80;;;28.20;26.00;;;;;;5023026;28;20455;-70
2022/06/26 10:32:43;;;;;;;3.23;2.70;;;27.80;27.40;;;;;;5027040;28;20419;-70
2022/06/26 10:35:09;;;;;;;3.80;2.67;;;27.30;26.10;;;;;;5027827;28;20542;-70
2022/06/26 10:37:48;;;;;;;2.93;2.60;;;27.70;26.10;;;;;;5028081;28;20431;-70
2022/06/26 10:43:15;;;;;;;5.23;2.57;;;28.00;28.30;;;;;;5027003;28;20941;-69
2022/06/26 10:45:41;;;;;;;3.23;2.70;;;28.90;26.20;;;;;;5025041;28;20548;-70
2022/06/26 10:48:21;;;;;;;3.00;2.67;;;28.70;26.50;;;;;;5023226;28;20459;-70
2022/06/26 10:50:58;;;;;;;2.73;2.50;;;29.60;24.10;;;;;;5023584;28;20221;-70
2022/06/26 10:53:26;;;;;;;3.33;2.33;;;29.50;23.20;;;;;;5028624;28;20418;-70
2022/06/26 10:55:58;;;;;;;2.80;2.37;;;28.50;24.30;;;;;;5025086;28;20493;-70
2022/06/26 10:58:29;;;;;;;4.53;2.60;;;29.10;26.00;;;;;;5023920;28;20434;-70
2022/06/26 11:01:00;;;;;;;4.03;3.00;;;29.40;24.60;;;;;;5020049;28;20439;-70
2022/06/26 11:03:27;;;;;;;6.93;2.40;;;29.50;25.60;;;;;;5028339;28;20458;-70
2022/06/26 11:06:07;;;;;;;2.93;2.40;;;30.00;24.70;;;;;;5016997;28;21058;-70
2022/06/26 11:08:34;;;;;;;3.33;2.60;;;30.70;24.20;;;;;;5026960;28;20472;-70
2022/06/26 11:11:07;;;;;;;3.37;2.77;;;31.20;22.80;;;;;;5023848;28;20423;-71
2022/06/26 11:13:35;;;;;;;3.60;2.90;;;30.30;23.50;;;;;;5025627;28;20870;-71
2022/06/26 11:16:03;;;;;;;3.67;2.73;;;30.70;23.20;;;;;;5025557;28;20470;-71
2022/06/26 11:18:35;;;;;;;4.20;2.60;;;30.70;22.30;;;;;;5028478;28;20491;-71
2022/06/26 11:21:02;;;;;;;4.97;2.40;;;31.20;23.90;;;;;;5015826;28;20465;-70
2022/06/26 11:23:33;;;;;;;6.13;2.73;;;31.10;24.00;;;;;;5024716;28;20542;-71
2022/06/26 11:26:07;;;;;;;6.07;2.77;;;31.00;24.10;;;;;;5019868;28;20463;-71
2022/06/26 11:28:41;;;;;;;3.27;2.50;;;31.60;23.50;;;;;;5023523;28;20434;-71
2022/06/26 11:31:10;;;;;;;2.87;2.60;;;31.90;22.60;;;;;;5024917;28;20441;-71
2022/06/26 11:33:38;;;;;;;3.50;2.53;;;31.40;22.70;;;;;;5024493;28;20499;-71
2022/06/26 11:36:09;;;;;;;8.13;3.10;;;31.10;21.60;;;;;;5021272;28;20443;-71
2022/06/26 11:38:35;;;;;;;3.30;2.60;;;31.70;22.70;;;;;;5026857;28;20425;-71
2022/06/26 11:41:04;;;;;;;6.30;3.27;;;30.70;21.30;;;;;;5029261;28;20415;-71
2022/06/26 11:43:30;;;;;;;4.63;2.70;;;30.50;22.70;;;;;;5020909;28;21032;-71
2022/06/26 11:45:57;;;;;;;5.93;2.50;;;31.20;22.00;;;;;;5027959;28;20463;-71
2022/06/26 11:48:23;;;;;;;2.90;2.80;;;32.20;21.00;;;;;;5023597;28;20415;-71
2022/06/26 11:50:54;;;;;;;3.60;2.60;;;32.40;20.10;;;;;;5023961;28;20427;-71
2022/06/26 11:53:28;;;;;;;3.13;2.60;;;31.70;22.50;;;;;;5021693;28;20185;-70
2022/06/26 11:55:59;;;;;;;3.87;2.77;;;30.70;22.00;;;;;;5022593;28;20455;-71
2022/06/26 11:58:28;;;;;;;3.27;2.60;;;29.80;23.30;;;;;;5024561;28;20423;-71
2022/06/26 12:01:05;;;;;;;3.20;2.50;;;30.50;22.80;;;;;;5028090;28;20415;-71
2022/06/26 12:03:30;;;;;;;4.90;2.70;;;32.00;22.60;;;;;;5028972;28;20426;-70
2022/06/26 12:05:56;;;;;;;7.60;2.70;;;32.30;20.00;;;;;;5029421;28;20459;-70
2022/06/26 12:08:22;;;;;;;5.57;2.50;;;30.70;21.90;;;;;;5030310;28;20172;-71
2022/06/26 12:10:50;;;;;;;3.47;2.63;;;31.10;22.60;;;;;;5030040;28;20211;-71
2022/06/26 12:13:26;;;;;;;3.80;2.67;;;32.40;22.40;;;;;;5029834;28;20255;-71
2022/06/26 12:15:53;;;;;;;5.23;2.90;;;32.00;19.60;;;;;;5026227;28;20778;-71
2022/06/26 12:18:19;;;;;;;4.00;2.77;;;30.70;22.50;;;;;;5008292;28;20419;-71
2022/06/26 12:20:49;;;;;;;2.80;2.57;;;30.50;23.40;;;;;;5024869;28;20426;-71
2022/06/26 12:23:15;;;;;;;3.10;2.57;;;31.80;23.70;;;;;;5029637;28;20481;-70
2022/06/26 12:25:44;;;;;;;5.77;2.63;;;32.70;20.70;;;;;;5029451;28;20458;-71
2022/06/26 12:28:23;;;;;;;3.03;2.53;;;32.00;21.50;;;;;;5030740;28;20234;-71
2022/06/26 12:30:49;;;;;;;5.10;2.50;;;31.70;21.10;;;;;;5027519;28;20422;-71
2022/06/26 12:33:14;;;;;;;4.37;2.67;;;33.30;21.40;;;;;;5021050;28;20493;-71
2022/06/26 12:35:41;;;;;;;2.63;2.43;;;34.40;20.00;;;;;;5028951;28;20235;-71
2022/06/26 12:38:06;;;;;;;3.40;2.70;;;34.90;17.80;;;;;;5023827;28;20181;-71
2022/06/26 12:40:34;;;;;;;3.20;2.60;;;33.50;18.20;;;;;;5024920;28;20423;-71
2022/06/26 12:43:00;;;;;;;4.20;2.60;;;33.50;18.90;;;;;;5018490;28;20224;-72
2022/06/26 12:45:26;;;;;;;4.60;2.40;;;34.20;18.20;;;;;;5029577;28;20542;-71
2022/06/26 12:47:52;;;;;;;4.40;2.60;;;34.30;18.20;;;;;;5027028;28;20522;-71
2022/06/26 12:50:18;;;;;;;6.73;2.67;;;32.10;19.70;;;;;;5026637;28;20707;-71
2022/06/26 12:52:44;;;;;;;4.23;2.77;;;30.90;22.40;;;;;;5025524;28;20668;-71
2022/06/26 12:55:10;;;;;;;3.47;2.50;;;30.80;22.30;;;;;;5031961;28;20443;-71
2022/06/26 12:57:36;;;;;;;2.67;2.23;;;31.90;20.40;;;;;;5022885;28;20226;-71